Time;durP1;ratioP1;P1;durP2;ratioP2;P2;SDS_P1;SDS_P2;PMS_P1;PMS_P2;Temp;Humidity;BMP_temperature;BMP_pressure;BME280_temperature;BME280_humidity;BME280_pressure;Samples;Min_cycle;Max_cycle;Signal;HPM_P1;HPM_P2
2022/12/06 00:03:30;;;;;;;67.30;40.20;;;;;;;6.98;71.88;99147.91;221815;1251;635221;-62
2022/12/06 00:09:00;;;;;;;66.30;41.10;;;;;;;7.03;71.62;99146.80;223489;1247;138645;-62
2022/12/06 00:16:58;;;;;;;;;;;;;;;;;;;;;
2022/12/06 00:22:59;;;;;;;63.10;39.80;;;;;;;7.18;71.65;99129.30;223657;1243;138001;-62
2022/12/06 00:29:36;;;;;;;68.40;41.00;;;;;;;7.15;71.72;99129.48;222963;1247;138535;-63
2022/12/06 00:34:52;;;;;;;67.30;41.40;;;;;;;7.07;71.91;99122.23;223384;1240;137599;-64
2022/12/06 00:46:11;;;;;;;69.30;41.70;;;;;;;6.94;72.11;99109.31;225479;1237;137517;-63
2022/12/06 00:52:43;;;;;;;;;;;;;;;;;;;;;
2022/12/06 00:59:49;;;;;;;73.40;42.10;;;;;;;6.89;72.24;99117.77;224397;1230;138491;-63
2022/12/06 01:06:33;;;;;;;67.30;43.00;;;;;;;6.97;71.96;99105.62;221280;1253;635366;-62
2022/12/06 01:12:02;;;;;;;67.30;41.40;;;;;;;6.93;71.84;99104.95;223858;1230;138237;-62
2022/12/06 01:17:32;;;;;;;68.60;43.10;;;;;;;6.90;71.59;99094.81;224096;1237;158344;-63
2022/12/06 01:22:44;;;;;;;69.20;41.00;;;;;;;6.88;71.85;99092.45;224180;1231;137635;-64
2022/12/06 01:28:56;;;;;;;69.90;41.60;;;;;;;6.83;71.96;99094.10;224077;1236;137318;-63
2022/12/06 01:34:24;;;;;;;65.50;41.00;;;;;;;6.79;72.05;99081.94;223795;1237;137562;-65
2022/12/06 01:40:17;;;;;;;57.60;36.90;;;;;;;6.74;72.34;99072.81;224034;1237;138621;-64
2022/12/06 01:46:24;;;;;;;60.60;39.10;;;;;;;6.76;72.31;99064.09;224165;1230;139144;-63
2022/12/06 01:59:08;;;;;;;64.80;38.90;;;;;;;6.88;71.95;99055.05;224639;1237;137505;-63
2022/12/06 02:05:08;;;;;;;;;;;;;;;6.83;72.14;99046.13;224546;1234;138428;-64
2022/12/06 02:10:42;;;;;;;67.50;39.80;;;;;;;6.76;72.24;99040.10;225099;1234;124058;-63
2022/12/06 02:16:40;;;;;;;65.30;41.10;;;;;;;6.72;72.43;99028.52;224896;1234;137677;-63
2022/12/06 02:22:19;;;;;;;71.40;43.00;;;;;;;6.66;72.49;99016.59;224491;1237;137481;-63
2022/12/06 02:28:20;;;;;;;60.70;38.50;;;;;;;6.62;72.72;99006.39;224312;1235;137501;-60
2022/12/06 02:45:36;;;;;;;64.90;40.30;;;;;;;6.77;72.37;98982.05;221822;1241;636604;-62
2022/12/06 02:51:10;;;;;;;60.80;38.60;;;;;;;6.76;72.37;98976.97;223034;1233;138661;-61
2022/12/06 02:57:27;;;;;;;62.00;37.90;;;;;;;6.73;72.26;98966.20;224171;1239;111318;-62
2022/12/06 03:23:40;;;;;;;49.80;31.50;;;;;;;6.52;72.36;98938.64;223562;1236;137688;-62
2022/12/06 03:29:34;;;;;;;50.90;31.60;;;;;;;6.51;72.37;98934.28;223497;1237;139407;-64
2022/12/06 03:35:22;;;;;;;49.90;30.50;;;;;;;6.55;72.32;98941.14;224386;1237;137744;-63
2022/12/06 03:41:19;;;;;;;48.00;31.00;;;;;;;6.57;72.29;98950.06;224041;1237;137615;-62
2022/12/06 03:46:50;;;;;;;46.60;31.00;;;;;;;6.57;72.28;98934.86;222989;1241;95673;-61
2022/12/06 04:04:05;;;;;;;47.40;30.30;;;;;;;6.71;71.84;98921.52;223498;1243;137508;-63
2022/12/06 04:09:55;;;;;;;44.00;29.40;;;;;;;6.71;71.73;98919.41;225056;1233;138515;-61
2022/12/06 04:15:13;;;;;;;44.60;28.70;;;;;;;6.66;71.77;98915.42;225032;1234;138100;-62
2022/12/06 04:28:40;;;;;;;38.40;25.10;;;;;;;6.56;71.60;98888.91;224382;1229;138167;-62
2022/12/06 04:38:41;;;;;;;39.50;24.40;;;;;;;6.38;71.84;98881.47;224212;1239;138185;-61
2022/12/06 04:44:57;;;;;;;40.20;26.20;;;;;;;6.36;71.67;98879.85;221620;1251;635541;-62
2022/12/06 04:51:20;;;;;;;40.20;26.60;;;;;;;6.34;71.93;98881.32;223510;1239;139355;-61
2022/12/06 05:00:01;;;;;;;45.30;28.50;;;;;;;6.44;71.71;98875.94;221258;1252;635607;-63
2022/12/06 05:06:23;;;;;;;41.70;27.60;;;;;;;6.37;71.50;98863.55;222840;1245;138689;-63
2022/12/06 05:12:48;;;;;;;40.40;26.20;;;;;;;6.35;71.55;98867.53;223266;1247;137268;-62
2022/12/06 05:18:36;;;;;;;76.10;51.40;;;;;;;6.26;71.70;98855.09;223635;1236;136745;-62
2022/12/06 05:24:11;;;;;;;49.30;31.90;;;;;;;6.27;71.83;98855.40;221123;1253;636096;-61
2022/12/06 05:30:09;;;;;;;42.30;26.30;;;;;;;6.23;71.59;98861.77;223422;1240;94969;-62
2022/12/06 05:35:40;;;;;;;42.50;27.10;;;;;;;6.20;71.58;98858.06;222959;1240;138397;-62
2022/12/06 05:54:21;;;;;;;42.40;26.80;;;;;;;6.28;71.78;98829.13;222814;1242;123324;-61
2022/12/06 06:14:31;;;;;;;37.10;24.10;;;;;;;6.31;71.39;98821.74;223626;1238;138083;-62
2022/12/06 06:20:12;;;;;;;37.60;24.50;;;;;;;6.26;71.12;98820.04;223038;1240;138067;-61
2022/12/06 06:25:40;;;;;;;35.80;24.30;;;;;;;6.20;71.37;98826.50;222878;1242;137491;-62
2022/12/06 06:31:13;;;;;;;38.30;24.70;;;;;;;6.14;71.40;98835.08;222811;1232;137471;-62
2022/12/06 06:41:11;;;;;;;65.00;41.60;;;;;;;6.04;72.01;98829.90;221521;1244;635444;-63
2022/12/06 06:46:45;;;;;;;37.30;24.70;;;;;;;6.09;72.45;98819.78;223914;1240;138048;-64
2022/12/06 06:58:50;;;;;;;47.00;31.30;;;;;;;6.12;72.07;98815.44;224985;1238;137987;-63
2022/12/06 07:04:48;;;;;;;35.50;23.90;;;;;;;6.27;72.37;98812.77;221667;1250;635917;-62
2022/12/06 07:17:11;;;;;;;36.60;23.50;;;;;;;6.21;71.94;98797.56;223002;1238;137968;-64
2022/12/06 07:23:03;;;;;;;37.20;24.60;;;;;;;6.18;72.02;98794.73;223167;1241;137291;-64
2022/12/06 07:32:52;;;;;;;52.20;32.40;;;;;;;6.15;72.82;98790.62;221576;1250;635201;-63
2022/12/06 07:38:40;;;;;;;;;;;;;;;;;;;;;
2022/12/06 07:50:47;;;;;;;31.70;20.10;;;;;;;6.07;72.06;98789.95;224052;1237;138470;-64
2022/12/06 07:56:24;;;;;;;26.30;18.70;;;;;;;6.09;72.22;98779.14;224488;1237;137266;-65
2022/12/06 08:03:02;;;;;;;29.00;19.00;;;;;;;6.13;72.42;98767.52;223136;1246;137041;-65
2022/12/06 08:10:48;;;;;;;;;;;;;;;;;;;;;
2022/12/06 08:23:43;;;;;;;24.50;17.50;;;;;;;6.10;72.43;98744.36;223300;1240;137873;-64
2022/12/06 08:29:44;;;;;;;;;;;;;;;;;;;;;
2022/12/06 08:35:40;;;;;;;21.60;15.30;;;;;;;6.09;72.26;98748.65;223020;1240;137348;-63
2022/12/06 08:42:02;;;;;;;18.20;14.30;;;;;;;6.12;72.27;98744.64;223211;1240;138251;-62
2022/12/06 08:47:12;;;;;;;30.90;21.20;;;;;;;6.17;72.38;98757.44;223240;1244;138078;-62
2022/12/06 08:52:39;;;;;;;19.50;14.60;;;;;;;6.22;72.34;98760.51;222381;1234;137682;-62
2022/12/06 08:57:53;;;;;;;19.90;14.60;;;;;;;6.38;71.85;98759.04;222622;1240;137815;-62
2022/12/06 09:15:39;;;;;;;20.10;14.40;;;;;;;6.22;71.78;98749.23;222261;1243;137703;-63
2022/12/06 09:21:11;;;;;;;20.50;14.10;;;;;;;6.17;71.80;98747.76;222294;1243;138107;-63
2022/12/06 09:27:53;;;;;;;19.70;14.80;;;;;;;6.12;71.91;98741.48;222355;1243;138082;-62
2022/12/06 09:33:53;;;;;;;18.60;13.70;;;;;;;6.12;72.01;98730.38;222420;1242;139137;-61
2022/12/06 09:39:35;;;;;;;23.60;15.50;;;;;;;6.14;72.17;98732.00;222356;1243;139288;-63
2022/12/06 09:45:04;;;;;;;24.00;15.80;;;;;;;6.16;72.09;98728.95;222497;1243;138126;-63
2022/12/06 09:51:04;;;;;;;23.00;15.40;;;;;;;6.19;72.16;98719.66;223021;1240;139300;-63
2022/12/06 09:56:39;;;;;;;22.60;15.00;;;;;;;6.20;72.15;98715.39;223235;1240;137670;-63
2022/12/06 10:02:15;;;;;;;19.00;13.80;;;;;;;6.20;72.11;98701.47;223098;1230;139203;-63
2022/12/06 10:07:54;;;;;;;20.70;14.00;;;;;;;6.16;71.98;98690.88;224244;1237;137714;-65
2022/12/06 10:13:38;;;;;;;19.00;13.80;;;;;;;6.14;72.59;98684.98;223981;1235;137857;-64
2022/12/06 10:19:18;;;;;;;17.90;13.30;;;;;;;6.17;72.49;98688.74;223864;1236;138331;-63
2022/12/06 10:25:15;;;;;;;17.00;12.30;;;;;;;6.20;72.38;98686.63;223923;1236;138244;-64
2022/12/06 10:31:36;;;;;;;36.30;25.60;;;;;;;6.34;72.69;98683.12;224209;1233;138989;-63
2022/12/06 10:37:24;;;;;;;17.50;12.40;;;;;;;6.42;71.89;98678.86;223755;1240;139246;-63
2022/12/06 10:43:17;;;;;;;20.30;13.90;;;;;;;6.38;71.82;98673.02;223886;1239;137730;-63
2022/12/06 10:49:08;;;;;;;20.10;13.60;;;;;;;6.40;72.02;98663.80;223198;1229;137825;-62
2022/12/06 10:55:07;;;;;;;20.20;14.40;;;;;;;6.39;72.08;98665.42;223945;1237;137944;-62
2022/12/06 11:07:34;;;;;;;24.40;15.60;;;;;;;6.36;72.31;98642.50;223958;1234;138842;-63
2022/12/06 11:13:29;;;;;;;19.10;14.80;;;;;;;6.32;72.71;98632.47;223936;1237;137632;-63
2022/12/06 11:18:46;;;;;;;19.70;14.90;;;;;;;6.42;72.79;98630.03;224144;1236;138984;-62
2022/12/06 11:24:52;;;;;;;23.30;16.80;;;;;;;6.51;72.91;98637.69;224087;1230;139427;-61
2022/12/06 11:30:23;;;;;;;18.90;14.50;;;;;;;6.58;72.65;98633.45;223954;1238;138804;-62
2022/12/06 11:36:12;;;;;;;21.90;15.00;;;;;;;6.61;72.75;98628.00;223996;1237;138235;-62
2022/12/06 11:42:31;;;;;;;19.70;13.70;;;;;;;6.65;72.62;98621.97;223969;1236;138508;-61
2022/12/06 11:55:01;;;;;;;18.20;14.00;;;;;;;6.68;72.76;98611.56;224220;1237;137903;-64
2022/12/06 12:00:32;;;;;;;17.90;13.10;;;;;;;6.72;72.76;98616.48;223903;1237;137623;-63
2022/12/06 12:06:20;;;;;;;17.40;12.80;;;;;;;6.73;72.57;98620.47;223102;1240;95312;-62
2022/12/06 12:11:57;;;;;;;19.90;12.90;;;;;;;6.83;72.55;98619.07;222772;1240;139349;-62
2022/12/06 12:17:42;;;;;;;;;;;;;;;;;;;;;
2022/12/06 12:23:33;;;;;;;20.80;14.00;;;;;;;6.99;72.39;98598.30;223529;1239;138308;-62
2022/12/06 12:28:38;;;;;;;22.40;15.80;;;;;;;6.98;72.37;98602.42;223623;1237;138727;-62
2022/12/06 12:40:57;;;;;;;;;;;;;;;;;;;;;
2022/12/06 13:00:29;;;;;;;20.20;15.10;;;;;;;6.98;73.12;98580.89;223725;1236;139512;-63
2022/12/06 13:06:05;;;;;;;20.60;14.80;;;;;;;7.06;73.12;98577.44;223811;1229;139206;-63
2022/12/06 13:12:57;;;;;;;20.60;15.20;;;;;;;7.17;73.01;98575.39;222395;1240;138668;-62
2022/12/06 13:18:15;;;;;;;20.00;14.00;;;;;;;7.24;72.59;98581.55;223473;1229;137925;-64
2022/12/06 13:23:32;;;;;;;17.00;13.40;;;;;;;7.19;72.53;98578.67;223541;1244;139267;-63
2022/12/06 13:35:04;;;;;;;;;;;;;;;;;;;;;
2022/12/06 13:47:27;;;;;;;13.70;9.30;;;;;;;7.13;72.27;98571.02;226277;1232;138885;-62
2022/12/06 13:52:42;;;;;;;7.90;5.60;;;;;;;7.19;71.49;98577.77;225148;1244;138999;-63
2022/12/06 13:57:58;;;;;;;5.20;3.90;;;;;;;7.16;70.08;98576.91;225154;1248;138605;-63
2022/12/06 14:03:22;;;;;;;5.60;4.00;;;;;;;7.06;70.29;98583.76;225068;1240;138042;-64
2022/12/06 14:09:02;;;;;;;5.80;3.50;;;;;;;6.98;69.34;98581.73;226154;1237;138402;-62
2022/12/06 14:14:31;;;;;;;4.70;3.60;;;;;;;6.92;69.27;98579.65;225023;1248;137589;-62
2022/12/06 14:19:50;;;;;;;5.70;3.80;;;;;;;6.84;69.08;98581.63;225477;1238;137781;-64
2022/12/06 14:25:25;;;;;;;4.80;3.70;;;;;;;6.71;69.34;98574.74;225475;1239;137592;-63
2022/12/06 14:30:33;;;;;;;6.40;3.70;;;;;;;6.59;69.72;98572.40;225264;1246;138285;-63
2022/12/06 14:35:38;;;;;;;5.00;3.50;;;;;;;6.60;69.86;98565.84;226325;1229;138411;-62
2022/12/06 14:46:27;;;;;;;5.10;3.70;;;;;;;6.85;69.02;98573.11;225343;1238;139124;-65
2022/12/06 14:52:11;;;;;;;5.50;3.80;;;;;;;6.87;68.84;98577.42;225520;1247;137681;-62
2022/12/06 14:57:27;;;;;;;6.60;4.00;;;;;;;6.84;68.50;98576.83;225807;1251;137719;-63
2022/12/06 15:03:10;;;;;;;5.60;3.90;;;;;;;6.80;68.45;98583.44;226785;1232;138175;-63
2022/12/06 15:08:25;;;;;;;8.70;5.20;;;;;;;6.74;68.49;98582.33;225567;1243;137798;-62
2022/12/06 15:13:38;;;;;;;5.80;4.30;;;;;;;6.75;68.40;98580.70;225708;1241;137866;-62
2022/12/06 15:18:55;;;;;;;217.20;130.30;;;;;;;6.68;68.65;98582.30;226797;1245;137702;-61
2022/12/06 15:24:02;;;;;;;7.70;5.20;;;;;;;6.57;68.81;98587.15;226888;1234;138817;-62
2022/12/06 15:29:07;;;;;;;10.40;5.10;;;;;;;6.55;68.85;98586.52;225280;1237;138117;-61
2022/12/06 15:34:33;;;;;;;6.80;5.10;;;;;;;6.65;68.72;98583.73;223699;1237;139095;-62
2022/12/06 15:39:39;;;;;;;9.60;5.80;;;;;;;6.67;68.52;98581.83;223672;1239;137947;-63
2022/12/06 15:44:44;;;;;;;6.10;5.30;;;;;;;6.66;68.57;98582.27;223705;1239;137854;-61
2022/12/06 15:50:25;;;;;;;7.80;5.90;;;;;;;6.70;68.60;98576.78;223425;1234;138668;-63
2022/12/06 15:55:57;;;;;;;9.30;6.60;;;;;;;6.65;68.53;98573.34;223952;1230;137882;-61
2022/12/06 16:01:22;;;;;;;12.30;7.40;;;;;;;6.55;68.52;98569.28;223526;1237;137785;-63
2022/12/06 16:06:31;;;;;;;26.70;19.20;;;;;;;6.52;69.17;98569.42;223594;1243;137613;-62
2022/12/06 16:11:36;;;;;;;9.50;6.80;;;;;;;6.58;69.15;98568.39;223582;1237;137876;-63
2022/12/06 16:16:57;;;;;;;13.10;8.30;;;;;;;6.51;68.87;98564.00;223609;1239;139120;-62
2022/12/06 16:23:59;;;;;;;12.50;9.60;;;;;;;6.54;68.91;98556.63;224009;1237;139058;-63
2022/12/06 16:28:03;;;;;;;16.60;10.80;;;;;;;6.61;68.79;98556.08;224218;1230;137563;-63
2022/12/06 16:33:27;;;;;;;19.30;11.70;;;;;;;6.62;68.51;98560.42;223451;1236;138785;-61
2022/12/06 16:38:39;;;;;;;16.10;10.80;;;;;;;6.56;68.35;98557.23;223258;1238;138100;-64
2022/12/06 16:43:45;;;;;;;15.50;10.40;;;;;;;6.53;68.54;98555.30;223850;1236;138278;-62
2022/12/06 16:48:59;;;;;;;15.60;10.50;;;;;;;6.41;68.65;98555.19;223684;1236;140431;-61
2022/12/06 16:54:26;;;;;;;14.00;10.20;;;;;;;6.29;68.82;98552.98;223783;1237;137530;-63
2022/12/06 16:59:30;;;;;;;15.30;10.90;;;;;;;6.25;69.09;98545.83;223798;1237;138225;-62
2022/12/06 17:04:44;;;;;;;17.20;10.30;;;;;;;6.19;69.08;98552.45;223951;1237;137908;-61
2022/12/06 17:09:48;;;;;;;17.20;10.50;;;;;;;6.18;69.25;98557.48;223825;1236;138580;-62
2022/12/06 17:14:54;;;;;;;17.10;10.50;;;;;;;6.24;69.09;98558.27;223704;1229;140368;-62
2022/12/06 17:20:02;;;;;;;18.40;11.40;;;;;;;6.29;68.71;98565.49;223636;1241;229201;-63
2022/12/06 17:25:09;;;;;;;;;;;;;;;6.33;68.70;98569.22;223687;1229;139217;-62
2022/12/06 17:30:18;;;;;;;83.30;56.00;;;;;;;6.26;68.52;98565.86;223738;1236;124108;-64
2022/12/06 17:35:30;;;;;;;17.40;13.00;;;;;;;6.28;69.09;98562.59;223929;1233;138138;-64
2022/12/06 17:40:38;;;;;;;15.60;11.20;;;;;;;6.26;68.79;98563.04;223789;1236;138180;-63
2022/12/06 17:45:44;;;;;;;14.90;9.90;;;;;;;6.20;68.35;98569.73;223863;1236;138344;-62
2022/12/06 17:50:52;;;;;;;19.70;14.20;;;;;;;6.12;68.51;98567.28;223706;1236;138315;-62
2022/12/06 17:56:35;;;;;;;13.40;9.10;;;;;;;6.06;68.81;98571.50;223720;1230;138809;-65
2022/12/06 18:01:43;;;;;;;15.80;10.20;;;;;;;6.09;68.93;98563.20;223943;1236;138897;-63
2022/12/06 18:07:10;;;;;;;14.50;10.10;;;;;;;6.21;68.99;98559.65;223902;1239;138296;-62
2022/12/06 18:12:18;;;;;;;13.50;9.80;;;;;;;6.28;68.51;98559.43;223675;1239;138462;-63
2022/12/06 18:17:24;;;;;;;12.40;8.80;;;;;;;6.27;68.10;98559.45;223551;1235;138229;-61
2022/12/06 18:22:55;;;;;;;11.60;8.70;;;;;;;6.26;68.14;98560.60;223626;1231;138201;-62
2022/12/06 18:28:00;;;;;;;14.80;9.60;;;;;;;6.14;68.43;98559.77;223633;1239;138836;-64
2022/12/06 18:33:27;;;;;;;;;;;;;;;;;;;;;
2022/12/06 18:38:38;;;;;;;15.30;9.30;;;;;;;5.91;68.87;98560.96;223739;1236;138335;-63
2022/12/06 18:43:50;;;;;;;13.60;8.70;;;;;;;5.86;69.14;98557.86;223817;1237;138130;-62
2022/12/06 18:49:05;;;;;;;16.40;9.50;;;;;;;5.95;69.29;98554.80;223839;1234;139194;-65
2022/12/06 18:54:12;;;;;;;200.50;130.60;;;;;;;6.07;69.67;98552.40;223816;1236;138522;-62
2022/12/06 18:59:52;;;;;;;16.10;10.30;;;;;;;6.23;69.86;98551.73;223864;1242;139526;-64
2022/12/06 19:11:17;;;;;;;11.50;6.80;;;;;;;6.15;68.52;98555.83;223673;1237;140547;-63
2022/12/06 19:16:48;;;;;;;13.10;7.90;;;;;;;5.97;68.47;98560.66;223585;1243;137641;-63
2022/12/06 19:22:16;;;;;;;;;;;;;;;;;;;;;
2022/12/06 19:27:25;;;;;;;14.00;8.00;;;;;;;5.84;69.04;98555.14;223842;1237;137809;-63
2022/12/06 19:33:42;;;;;;;16.10;8.50;;;;;;;5.86;69.70;98549.77;223725;1240;138380;-63
2022/12/06 19:39:03;;;;;;;14.70;8.30;;;;;;;5.87;69.43;98554.64;223620;1237;138392;-63
2022/12/06 19:45:16;;;;;;;12.10;7.10;;;;;;;5.83;69.81;98549.36;223436;1242;138095;-62
2022/12/06 19:51:01;;;;;;;13.10;8.20;;;;;;;5.83;69.62;98547.07;223693;1239;138690;-63
2022/12/06 19:56:29;;;;;;;146.10;88.90;;;;;;;5.82;69.29;98549.96;223325;1246;138188;-63
2022/12/06 20:01:47;;;;;;;26.50;16.30;;;;;;;5.77;69.84;98547.00;223277;1238;138034;-62
2022/12/06 20:06:57;;;;;;;10.50;7.80;;;;;;;5.75;69.42;98552.09;223169;1243;138793;-62
2022/12/06 20:12:12;;;;;;;11.50;7.90;;;;;;;5.74;69.30;98550.01;223179;1245;138723;-63
2022/12/06 20:17:53;;;;;;;12.30;7.50;;;;;;;5.73;69.04;98553.22;223008;1242;138682;-62
2022/12/06 20:22:58;;;;;;;22.90;15.90;;;;;;;5.70;69.18;98552.50;222943;1239;137951;-62
2022/12/06 20:28:09;;;;;;;12.10;8.10;;;;;;;5.71;69.36;98550.49;223745;1239;138580;-65
2022/12/06 20:33:16;;;;;;;10.70;7.10;;;;;;;5.67;69.20;98548.08;223849;1236;137538;-63
2022/12/06 20:38:38;;;;;;;10.50;7.50;;;;;;;5.54;68.71;98546.23;223952;1241;137883;-64
2022/12/06 20:43:47;;;;;;;9.00;6.20;;;;;;;5.43;69.05;98549.09;224043;1233;138113;-64
2022/12/06 20:48:52;;;;;;;9.70;6.30;;;;;;;5.43;69.00;98542.70;223922;1234;139159;-63
2022/12/06 20:55:08;;;;;;;10.80;7.10;;;;;;;5.53;68.86;98543.17;223779;1236;138605;-63
2022/12/06 20:59:53;;;;;;;12.60;8.80;;;;;;;5.56;68.82;98546.52;223789;1241;137782;-63
2022/12/06 21:04:57;;;;;;;11.00;7.30;;;;;;;5.52;68.88;98551.60;223853;1237;138613;-63
2022/12/06 21:10:03;;;;;;;9.80;6.50;;;;;;;5.49;69.22;98561.98;223736;1237;138242;-64
2022/12/06 21:15:10;;;;;;;11.00;6.70;;;;;;;5.44;69.13;98558.67;223931;1243;137531;-63
2022/12/06 21:20:15;;;;;;;9.70;6.50;;;;;;;5.40;69.21;98559.23;223965;1241;137954;-62
2022/12/06 21:25:49;;;;;;;8.80;6.30;;;;;;;5.36;68.98;98564.73;223792;1230;138674;-63
2022/12/06 21:31:07;;;;;;;9.30;6.10;;;;;;;5.34;69.19;98573.81;223823;1242;138407;-63
2022/12/06 21:36:17;;;;;;;7.90;5.30;;;;;;;5.31;69.05;98572.17;224026;1237;138014;-62
2022/12/06 21:41:40;;;;;;;8.60;5.50;;;;;;;5.34;69.36;98577.80;223716;1238;138949;-63
2022/12/06 21:46:57;;;;;;;10.50;6.00;;;;;;;5.41;68.82;98579.27;223632;1237;138999;-63
2022/12/06 21:52:11;;;;;;;8.40;5.40;;;;;;;5.45;68.78;98573.41;224890;1239;138076;-63
2022/12/06 21:57:15;;;;;;;10.10;5.80;;;;;;;5.46;68.70;98573.73;226037;1243;138163;-63
2022/12/06 22:02:21;;;;;;;10.20;5.60;;;;;;;5.43;68.52;98574.75;225839;1242;138019;-62
2022/12/06 22:07:35;;;;;;;11.60;5.80;;;;;;;5.46;68.40;98578.98;225846;1243;138312;-63
2022/12/06 22:12:40;;;;;;;7.90;5.50;;;;;;;5.45;68.23;98584.52;225769;1254;138146;-63
2022/12/06 22:17:44;;;;;;;8.10;5.20;;;;;;;5.40;68.59;98580.55;226045;1241;138476;-62
2022/12/06 22:22:54;;;;;;;6.80;5.20;;;;;;;5.35;68.37;98585.52;225913;1241;137669;-62
2022/12/06 22:28:01;;;;;;;6.80;4.90;;;;;;;5.32;68.36;98579.17;225971;1256;138008;-63
2022/12/06 22:33:05;;;;;;;7.10;4.40;;;;;;;5.32;68.45;98584.79;225789;1242;138755;-64
2022/12/06 22:38:23;;;;;;;7.90;5.00;;;;;;;5.42;68.17;98584.14;225942;1244;138606;-62
2022/12/06 22:43:35;;;;;;;7.30;4.50;;;;;;;5.51;68.03;98587.75;226119;1248;138468;-63
2022/12/06 22:49:05;;;;;;;6.10;4.30;;;;;;;5.47;67.71;98582.30;225985;1244;137999;-63
2022/12/06 22:54:17;;;;;;;8.60;5.20;;;;;;;5.44;67.88;98581.39;225967;1234;138207;-63
2022/12/06 22:59:25;;;;;;;8.10;6.20;;;;;;;5.41;68.05;98575.54;226981;1249;138245;-63
2022/12/06 23:04:35;;;;;;;9.50;6.10;;;;;;;5.33;67.96;98571.21;225981;1245;137908;-63
2022/12/06 23:10:34;;;;;;;9.10;6.00;;;;;;;5.28;68.43;98571.09;225900;1246;137803;-63
2022/12/06 23:16:00;;;;;;;9.30;5.90;;;;;;;5.26;68.74;98574.73;225814;1253;137938;-63
2022/12/06 23:21:11;;;;;;;8.90;5.70;;;;;;;5.29;68.60;98568.40;226127;1238;138658;-64
2022/12/06 23:26:22;;;;;;;8.80;5.80;;;;;;;5.39;68.38;98565.80;226076;1248;138267;-63
2022/12/06 23:31:59;;;;;;;8.70;5.80;;;;;;;5.41;68.41;98565.00;225980;1243;138945;-62
2022/12/06 23:37:10;;;;;;;8.50;5.30;;;;;;;5.37;68.08;98556.55;226386;1240;137653;-62
2022/12/06 23:42:37;;;;;;;9.00;6.20;;;;;;;5.34;68.36;98546.52;226063;1237;138174;-64
2022/12/06 23:47:40;;;;;;;11.40;5.70;;;;;;;5.32;68.35;98548.88;227639;1248;138048;-64
2022/12/06 23:52:50;;;;;;;9.80;6.20;;;;;;;5.29;68.71;98544.29;227579;1235;138488;-63
